createdAt,value
2018-04-30T00:00:03.176Z,973.65
2018-04-30T00:01:03.178Z,973.83
2018-04-30T00:02:03.180Z,973.76
2018-04-30T00:03:03.179Z,973.73
2018-04-30T00:04:03.185Z,973.86
2018-04-30T00:05:03.183Z,973.79
2018-04-30T00:06:03.182Z,973.8
2018-04-30T00:07:03.182Z,973.87
2018-04-30T00:08:03.184Z,973.92
2018-04-30T00:09:03.189Z,973.93
2018-04-30T00:10:03.186Z,973.93
2018-04-30T00:11:03.214Z,973.96
2018-04-30T00:12:03.189Z,974.01
2018-04-30T00:13:03.188Z,973.96
2018-04-30T00:14:03.191Z,974
2018-04-30T00:15:03.189Z,974.05
2018-04-30T00:16:03.190Z,974.03
2018-04-30T00:17:03.191Z,974.03
2018-04-30T00:18:03.194Z,974.08
2018-04-30T00:19:03.193Z,974.15
2018-04-30T00:20:03.195Z,974.15
2018-04-30T00:21:03.193Z,974.11
2018-04-30T00:22:03.194Z,974.13
2018-04-30T00:23:03.195Z,974.18
2018-04-30T00:24:03.196Z,974.2
2018-04-30T00:25:03.197Z,974.27
2018-04-30T00:26:03.197Z,974.33
2018-04-30T00:27:03.198Z,974.38
2018-04-30T00:28:03.199Z,974.44
2018-04-30T00:29:03.200Z,974.47
2018-04-30T00:30:03.200Z,974.49
2018-04-30T00:31:03.204Z,974.49
2018-04-30T00:32:03.208Z,974.5
2018-04-30T00:33:03.201Z,974.54
2018-04-30T00:34:03.203Z,974.59
2018-04-30T00:35:03.207Z,974.65
2018-04-30T00:36:03.212Z,974.66
2018-04-30T00:37:03.206Z,974.65
2018-04-30T00:38:03.207Z,974.62
2018-04-30T00:39:03.205Z,974.66
2018-04-30T00:40:03.208Z,974.64
2018-04-30T00:41:03.209Z,974.6
2018-04-30T00:42:03.209Z,974.54
2018-04-30T00:43:03.216Z,974.51
2018-04-30T00:44:03.207Z,974.56
2018-04-30T00:45:03.212Z,974.58
2018-04-30T00:46:03.210Z,974.69
2018-04-30T00:47:03.209Z,974.75
2018-04-30T00:48:03.210Z,974.8
2018-04-30T00:49:03.220Z,974.72
2018-04-30T00:50:03.215Z,974.77
2018-04-30T00:51:03.211Z,974.79
2018-04-30T00:52:03.211Z,974.8
2018-04-30T00:53:03.213Z,974.85
2018-04-30T00:54:03.213Z,974.87
2018-04-30T00:55:03.264Z,974.92
2018-04-30T00:56:03.216Z,974.93
2018-04-30T00:57:03.214Z,974.95
2018-04-30T00:58:03.214Z,974.97
2018-04-30T00:59:03.216Z,974.95
2018-04-30T01:00:04.167Z,975.04
2018-04-30T01:01:03.217Z,975.04
2018-04-30T01:02:03.216Z,975.09
2018-04-30T01:03:03.218Z,975.03
2018-04-30T01:04:03.220Z,975.15
2018-04-30T01:05:03.217Z,975.07
2018-04-30T01:06:03.220Z,975.11
2018-04-30T01:07:03.220Z,975.07
2018-04-30T01:08:03.221Z,975.05
2018-04-30T01:09:03.221Z,975.02
2018-04-30T01:10:03.221Z,975.01
2018-04-30T01:11:03.222Z,975.02
2018-04-30T01:12:03.223Z,975.03
2018-04-30T01:13:03.228Z,975.05
2018-04-30T01:14:03.224Z,975.07
2018-04-30T01:15:03.225Z,975.17
2018-04-30T01:16:03.227Z,975.25
2018-04-30T01:17:03.227Z,975.23
2018-04-30T01:18:03.227Z,975.16
2018-04-30T01:19:03.226Z,975.22
2018-04-30T01:20:03.228Z,975.19
2018-04-30T01:21:03.241Z,975.21
2018-04-30T01:22:03.232Z,975.18
2018-04-30T01:23:03.228Z,975.27
2018-04-30T01:24:03.229Z,975.38
2018-04-30T01:25:03.234Z,975.42
2018-04-30T01:26:03.234Z,975.37
2018-04-30T01:27:03.232Z,975.42
2018-04-30T01:28:03.232Z,975.46
2018-04-30T01:29:03.232Z,975.51
2018-04-30T01:30:03.231Z,975.56
2018-04-30T01:31:03.233Z,975.56
2018-04-30T01:32:03.233Z,975.61
2018-04-30T01:33:03.233Z,975.61
2018-04-30T01:34:03.234Z,975.72
2018-04-30T01:35:03.235Z,975.76
2018-04-30T01:36:03.237Z,975.67
2018-04-30T01:37:03.245Z,975.66
2018-04-30T01:38:03.235Z,975.6
2018-04-30T01:39:03.237Z,975.62
2018-04-30T01:40:03.236Z,975.71
2018-04-30T01:41:03.236Z,975.73
2018-04-30T01:42:03.236Z,975.79
2018-04-30T01:43:03.236Z,975.94
2018-04-30T01:44:03.239Z,975.87
2018-04-30T01:45:03.243Z,975.92
2018-04-30T01:46:03.239Z,975.9
2018-04-30T01:47:03.239Z,975.95
2018-04-30T01:48:03.239Z,975.88
2018-04-30T01:49:03.240Z,976.01
2018-04-30T01:50:03.239Z,975.99
2018-04-30T01:51:03.241Z,976.04
2018-04-30T01:52:03.240Z,976.07
2018-04-30T01:53:03.240Z,976.11
2018-04-30T01:54:03.244Z,976.16
2018-04-30T01:55:03.244Z,976.26
2018-04-30T01:56:03.240Z,976.31
2018-04-30T01:57:03.240Z,976.26
2018-04-30T01:58:03.241Z,976.31
2018-04-30T01:59:03.240Z,976.34
2018-04-30T02:00:03.251Z,976.37
2018-04-30T02:01:03.291Z,976.38
2018-04-30T02:02:03.241Z,976.39
2018-04-30T02:03:03.252Z,976.43
2018-04-30T02:04:03.243Z,976.41
2018-04-30T02:05:03.246Z,976.5
2018-04-30T02:06:03.244Z,976.5
2018-04-30T02:07:03.241Z,976.54
2018-04-30T02:08:03.242Z,976.46
2018-04-30T02:09:03.246Z,976.5
2018-04-30T02:10:03.241Z,976.46
2018-04-30T02:11:03.242Z,976.4
2018-04-30T02:12:03.253Z,976.47
2018-04-30T02:13:03.241Z,976.37
2018-04-30T02:14:03.244Z,976.39
2018-04-30T02:15:03.242Z,976.43
2018-04-30T02:16:06.249Z,976.43
2018-04-30T02:17:03.251Z,976.57
2018-04-30T02:18:03.240Z,976.72
2018-04-30T02:19:03.242Z,976.78
2018-04-30T02:20:03.242Z,976.87
2018-04-30T02:21:03.247Z,976.84
2018-04-30T02:22:03.239Z,976.78
2018-04-30T02:23:03.240Z,976.66
2018-04-30T02:24:03.240Z,976.62
2018-04-30T02:25:03.238Z,976.63
2018-04-30T02:26:03.240Z,976.72
2018-04-30T02:27:03.246Z,976.72
2018-04-30T02:28:03.240Z,976.82
2018-04-30T02:29:03.239Z,976.92
2018-04-30T02:30:03.239Z,977.01
2018-04-30T02:31:03.238Z,976.99
2018-04-30T02:32:03.245Z,976.98
2018-04-30T02:33:03.236Z,977
2018-04-30T02:34:03.240Z,977
2018-04-30T02:35:03.248Z,977.04
2018-04-30T02:36:03.237Z,976.95
2018-04-30T02:37:03.239Z,976.98
2018-04-30T02:38:03.239Z,977.05
2018-04-30T02:39:03.236Z,977.01
2018-04-30T02:40:03.238Z,977.09
2018-04-30T02:41:03.245Z,977.14
2018-04-30T02:42:03.240Z,977.19
2018-04-30T02:43:03.234Z,977.22
2018-04-30T02:44:03.268Z,977.27
2018-04-30T02:45:03.232Z,977.25
2018-04-30T02:46:03.235Z,977.29
2018-04-30T02:47:03.232Z,977.29
2018-04-30T02:48:03.231Z,977.23
2018-04-30T02:49:03.241Z,977.26
2018-04-30T02:50:03.231Z,977.21
2018-04-30T02:51:03.231Z,977.26
2018-04-30T02:52:03.230Z,977.31
2018-04-30T02:53:03.240Z,977.33
2018-04-30T02:54:03.229Z,977.38
2018-04-30T02:55:03.229Z,977.42
2018-04-30T02:56:03.232Z,977.45
2018-04-30T02:57:03.228Z,977.49
2018-04-30T02:58:03.226Z,977.54
2018-04-30T02:59:03.233Z,977.59
2018-04-30T03:00:03.227Z,977.66
2018-04-30T03:01:03.228Z,977.66
2018-04-30T03:02:03.224Z,977.63
2018-04-30T03:03:03.224Z,977.51
2018-04-30T03:04:03.223Z,977.52
2018-04-30T03:05:03.222Z,977.5
2018-04-30T03:06:03.223Z,977.61
2018-04-30T03:07:03.225Z,977.66
2018-04-30T03:08:03.223Z,977.73
2018-04-30T03:09:03.218Z,977.73
2018-04-30T03:10:03.226Z,977.8
2018-04-30T03:11:03.219Z,977.86
2018-04-30T03:12:03.217Z,977.84
2018-04-30T03:13:03.217Z,977.85
2018-04-30T03:14:03.214Z,977.9
2018-04-30T03:15:03.221Z,977.96
2018-04-30T03:16:03.217Z,977.94
2018-04-30T03:17:03.215Z,977.94
2018-04-30T03:18:03.216Z,978.02
2018-04-30T03:19:03.212Z,978.03
2018-04-30T03:20:03.211Z,978.05
2018-04-30T03:21:03.210Z,978.05
2018-04-30T03:22:03.208Z,978.1
2018-04-30T03:23:03.208Z,978.18
2018-04-30T03:24:03.209Z,978.23
2018-04-30T03:25:03.205Z,978.27
2018-04-30T03:26:03.207Z,978.33
2018-04-30T03:27:03.203Z,978.35
2018-04-30T03:28:03.206Z,978.39
2018-04-30T03:29:03.205Z,978.43
2018-04-30T03:38:30.151Z,978.58
2018-04-30T03:39:30.152Z,978.64
2018-04-30T03:40:30.152Z,978.72
2018-04-30T03:41:30.149Z,978.63
2018-04-30T03:42:30.147Z,978.65
2018-04-30T03:43:30.162Z,978.66
2018-04-30T03:44:30.147Z,978.73
2018-04-30T03:45:30.146Z,978.84
2018-04-30T03:46:30.149Z,978.84
2018-04-30T03:47:30.142Z,978.83
2018-04-30T03:48:30.140Z,978.82
2018-04-30T03:49:30.139Z,978.78
2018-04-30T03:50:30.138Z,978.76
2018-04-30T03:51:30.136Z,978.72
2018-04-30T03:52:30.135Z,978.65
2018-04-30T03:53:30.432Z,978.59
2018-04-30T03:54:30.132Z,978.6
2018-04-30T03:55:30.135Z,978.6
2018-04-30T03:56:30.130Z,978.61
2018-04-30T03:57:30.128Z,978.7
2018-04-30T03:58:30.126Z,978.79
2018-04-30T03:59:30.125Z,978.81
2018-04-30T04:00:30.124Z,978.83
2018-04-30T04:01:30.128Z,978.87
2018-04-30T04:02:30.119Z,978.86
2018-04-30T04:03:30.118Z,978.87
2018-04-30T04:04:30.118Z,978.82
2018-04-30T04:05:30.118Z,978.79
2018-04-30T04:06:30.114Z,978.78
2018-04-30T04:07:30.115Z,978.77
2018-04-30T04:08:34.915Z,978.8
2018-04-30T04:09:30.108Z,978.85
2018-04-30T04:10:30.117Z,978.91
2018-04-30T04:11:30.105Z,978.91
2018-04-30T04:12:30.105Z,978.91
2018-04-30T04:13:30.103Z,978.92
2018-04-30T04:14:30.102Z,978.84
2018-04-30T04:15:30.110Z,978.86
2018-04-30T04:16:30.100Z,978.86
2018-04-30T04:17:30.096Z,978.91
2018-04-30T04:18:30.094Z,978.86
2018-04-30T04:19:30.093Z,978.93
2018-04-30T04:20:30.090Z,978.91
2018-04-30T04:21:30.089Z,978.93
2018-04-30T04:22:30.086Z,978.9
2018-04-30T04:23:30.085Z,978.92
2018-04-30T04:24:30.083Z,978.95
2018-04-30T04:25:30.082Z,978.94
2018-04-30T04:26:30.084Z,978.93
2018-04-30T04:27:30.077Z,978.94
2018-04-30T04:28:30.077Z,978.91
2018-04-30T04:29:30.075Z,978.91
2018-04-30T04:30:30.073Z,978.91
2018-04-30T04:31:30.072Z,978.96
2018-04-30T04:32:30.071Z,978.95
2018-04-30T04:33:30.068Z,978.91
2018-04-30T04:34:30.065Z,978.91
2018-04-30T04:35:30.065Z,978.93
2018-04-30T04:36:30.064Z,978.93
2018-04-30T04:37:30.062Z,978.92
2018-04-30T04:38:30.064Z,978.93
2018-04-30T04:39:30.061Z,978.97
2018-04-30T04:40:30.057Z,978.93
2018-04-30T04:41:30.052Z,978.91
2018-04-30T04:42:30.052Z,978.91
2018-04-30T04:43:30.051Z,978.87
2018-04-30T04:44:30.062Z,978.84
2018-04-30T04:45:30.046Z,978.78
2018-04-30T04:46:30.048Z,978.75
2018-04-30T04:47:30.109Z,978.72
2018-04-30T04:48:30.041Z,978.71
2018-04-30T04:49:30.038Z,978.75
2018-04-30T04:50:30.042Z,978.82
2018-04-30T04:51:30.035Z,978.79
2018-04-30T04:52:30.036Z,978.81
2018-04-30T04:53:30.032Z,978.83
2018-04-30T04:54:30.029Z,978.84
2018-04-30T04:55:30.028Z,978.87
2018-04-30T04:56:30.025Z,978.8
2018-04-30T04:57:30.023Z,978.84
2018-04-30T04:58:30.053Z,978.84
2018-04-30T04:59:30.019Z,978.85
2018-04-30T05:00:30.025Z,978.87
2018-04-30T05:01:30.016Z,978.89
2018-04-30T05:02:30.013Z,978.91
2018-04-30T05:03:30.013Z,978.97
2018-04-30T05:04:30.010Z,979.08
2018-04-30T05:05:30.017Z,979.13
2018-04-30T05:06:30.006Z,979.14
2018-04-30T05:07:30.008Z,979.12
2018-04-30T05:08:30.002Z,979.1
2018-04-30T05:09:30.014Z,979.19
2018-04-30T05:10:30.011Z,979.19
2018-04-30T05:11:30.000Z,979.27
2018-04-30T05:12:29.992Z,979.36
2018-04-30T05:13:29.994Z,979.38
2018-04-30T05:14:29.990Z,979.39
2018-04-30T05:15:29.988Z,979.37
2018-04-30T05:16:29.987Z,979.34
2018-04-30T05:17:29.983Z,979.33
2018-04-30T05:18:29.981Z,979.35
2018-04-30T05:19:29.980Z,979.34
2018-04-30T05:20:29.977Z,979.31
2018-04-30T05:21:29.979Z,979.29
2018-04-30T05:22:29.974Z,979.23
2018-04-30T05:23:29.976Z,979.21
2018-04-30T05:24:29.968Z,979.16
2018-04-30T05:25:29.969Z,979.11
2018-04-30T05:26:29.965Z,979.08
2018-04-30T05:27:29.962Z,979.14
2018-04-30T05:28:29.963Z,979.24
2018-04-30T05:29:29.961Z,979.3
2018-04-30T05:30:29.956Z,979.22
2018-04-30T05:31:29.966Z,979.22
2018-04-30T05:32:29.951Z,979.34
2018-04-30T05:33:29.959Z,979.37
2018-04-30T05:34:29.945Z,979.42
2018-04-30T05:35:29.945Z,979.38
2018-04-30T05:36:29.941Z,979.34
2018-04-30T05:37:29.938Z,979.35
2018-04-30T05:38:29.936Z,979.42
2018-04-30T05:39:32.085Z,979.47
2018-04-30T05:40:29.935Z,979.53
2018-04-30T05:41:29.929Z,979.59
2018-04-30T05:42:29.927Z,979.63
2018-04-30T05:43:29.924Z,979.65
2018-04-30T05:44:29.922Z,979.76
2018-04-30T05:45:29.923Z,979.85
2018-04-30T05:46:29.919Z,979.84
2018-04-30T05:47:29.915Z,979.8
2018-04-30T05:48:29.913Z,979.78
2018-04-30T05:49:29.911Z,979.81
2018-04-30T05:50:29.910Z,979.83
2018-04-30T05:51:29.907Z,979.88
2018-04-30T05:52:29.908Z,979.95
2018-04-30T05:53:29.902Z,979.91
2018-04-30T05:54:29.900Z,979.93
2018-04-30T05:55:29.898Z,979.94
2018-04-30T05:56:29.895Z,980.01
2018-04-30T05:57:29.892Z,979.94
2018-04-30T05:58:29.891Z,979.88
2018-04-30T05:59:29.889Z,979.77
2018-04-30T06:00:29.949Z,979.66
2018-04-30T06:01:29.885Z,979.64
2018-04-30T06:02:29.882Z,979.62
2018-04-30T06:03:29.884Z,979.57
2018-04-30T06:04:29.879Z,979.62
2018-04-30T06:05:29.880Z,979.57
2018-04-30T06:06:29.875Z,979.52
2018-04-30T06:07:29.873Z,979.5
2018-04-30T06:08:29.882Z,979.57
2018-04-30T06:09:29.871Z,979.65
2018-04-30T06:10:29.869Z,979.6
2018-04-30T06:11:29.867Z,979.53
2018-04-30T06:12:29.866Z,979.37
2018-04-30T06:13:29.865Z,979.39
2018-04-30T06:23:18.816Z,979.33
2018-04-30T06:24:18.815Z,979.32
2018-04-30T06:25:18.825Z,979.42
2018-04-30T06:26:18.807Z,979.45
2018-04-30T06:27:18.804Z,979.36
2018-04-30T06:28:19.044Z,979.5
2018-04-30T06:29:18.812Z,979.52
2018-04-30T06:30:18.800Z,979.51
2018-04-30T06:31:18.803Z,979.54
2018-04-30T06:32:18.802Z,979.53
2018-04-30T06:33:18.804Z,979.54
2018-04-30T06:34:18.802Z,979.53
2018-04-30T06:35:18.803Z,979.54
2018-04-30T06:36:18.806Z,979.58
2018-04-30T06:37:18.807Z,979.52
2018-04-30T06:38:18.816Z,979.52
2018-04-30T06:39:18.819Z,979.47
2018-04-30T06:40:18.820Z,979.49
2018-04-30T06:41:18.817Z,979.44
2018-04-30T06:42:18.824Z,979.49
2018-04-30T06:43:18.823Z,979.51
2018-04-30T06:44:18.828Z,979.57
2018-04-30T06:45:18.833Z,979.63
2018-04-30T06:46:18.835Z,979.7
2018-04-30T06:47:18.866Z,979.73
2018-04-30T06:48:18.851Z,979.61
2018-04-30T06:49:18.867Z,979.55
2018-04-30T06:50:18.860Z,979.52
2018-04-30T06:51:18.864Z,979.51
2018-04-30T06:52:18.879Z,979.47
2018-04-30T06:53:18.892Z,979.58
2018-04-30T06:54:18.887Z,979.53
2018-04-30T06:55:18.888Z,979.38
2018-04-30T06:56:18.895Z,979.45
2018-04-30T06:57:19.205Z,979.42
2018-04-30T06:58:18.916Z,979.25
2018-04-30T06:59:18.918Z,979.41
2018-04-30T07:00:18.928Z,979.05
2018-04-30T07:01:18.928Z,979.09
2018-04-30T07:02:18.936Z,979.34
2018-04-30T07:03:18.945Z,979.15
2018-04-30T07:04:18.947Z,979.35
2018-04-30T07:05:18.952Z,979.18
2018-04-30T07:06:18.958Z,979.35
2018-04-30T07:07:18.976Z,979.3
2018-04-30T07:08:18.974Z,979.29
2018-04-30T07:09:19.118Z,979.29
2018-04-30T07:10:18.980Z,979.25
2018-04-30T07:11:19.141Z,979.26
2018-04-30T07:12:18.993Z,979.27
2018-04-30T07:13:18.998Z,979.21
2018-04-30T07:14:19.003Z,979.26
2018-04-30T07:15:19.009Z,979.31
2018-04-30T07:16:19.017Z,979.22
2018-04-30T07:17:19.019Z,979.22
2018-04-30T07:18:19.027Z,979.26
2018-04-30T07:19:19.036Z,979.27
2018-04-30T07:20:19.039Z,979.19
2018-04-30T07:21:19.045Z,979.25
2018-04-30T07:22:19.059Z,979.31
2018-04-30T07:23:19.095Z,979.37
2018-04-30T07:24:19.065Z,979.32
2018-04-30T07:25:19.068Z,979.35
2018-04-30T07:26:19.075Z,979.28
2018-04-30T07:27:19.082Z,979.31
2018-04-30T07:28:19.088Z,979.34
2018-04-30T07:29:19.094Z,979.42
2018-04-30T07:30:19.099Z,979.47
2018-04-30T07:31:19.103Z,979.28
2018-04-30T07:32:19.119Z,979.34
2018-04-30T07:33:19.120Z,979.25
2018-04-30T07:34:19.121Z,979.32
2018-04-30T07:35:19.127Z,979.09
2018-04-30T07:36:19.131Z,979.34
2018-04-30T07:37:19.136Z,979.21
2018-04-30T07:38:19.142Z,979.3
2018-04-30T07:39:19.155Z,979.28
2018-04-30T07:40:19.150Z,979.18
2018-04-30T07:41:19.155Z,979.16
2018-04-30T07:42:19.160Z,979.24
2018-04-30T07:43:19.162Z,979.27
2018-04-30T07:44:19.169Z,979.23
2018-04-30T07:45:19.171Z,979.24
2018-04-30T07:46:19.201Z,979.37
2018-04-30T07:47:19.181Z,979.18
2018-04-30T07:48:19.187Z,979.37
2018-04-30T07:49:19.197Z,979.37
2018-04-30T07:50:19.198Z,979.3
2018-04-30T07:51:19.200Z,979.37
2018-04-30T08:14:46.221Z,979.59
2018-04-30T08:15:46.225Z,979.69
2018-04-30T08:16:46.229Z,979.65
2018-04-30T08:17:46.236Z,979.59
2018-04-30T08:18:46.246Z,979.44
2018-04-30T08:19:46.247Z,979.56
2018-04-30T08:20:46.257Z,979.51
2018-04-30T08:21:46.256Z,979.47
2018-04-30T08:22:46.261Z,979.52
2018-04-30T08:23:46.269Z,979.39
2018-04-30T08:24:46.272Z,979.37
2018-04-30T08:25:46.276Z,979.32
2018-04-30T08:26:46.291Z,979.35
2018-04-30T08:27:46.290Z,979.36
2018-04-30T08:28:46.295Z,979.41
2018-04-30T08:29:46.801Z,979.39
2018-04-30T08:30:46.305Z,979.46
2018-04-30T08:31:46.314Z,979.31
2018-04-30T08:32:46.318Z,979.36
2018-04-30T08:33:46.325Z,979.36
2018-04-30T08:34:46.329Z,979.37
2018-04-30T08:35:46.334Z,979.27
2018-04-30T08:36:46.409Z,979.33
2018-04-30T08:37:46.348Z,979.36
2018-04-30T08:38:46.352Z,979.36
2018-04-30T08:39:46.359Z,979.41
2018-04-30T08:40:46.364Z,979.34
2018-04-30T08:41:46.372Z,979.34
2018-04-30T08:42:46.378Z,979.37
2018-04-30T08:43:46.386Z,979.34
2018-04-30T08:44:46.440Z,979.43
2018-04-30T08:45:46.471Z,979.43
2018-04-30T08:46:46.397Z,979.35
2018-04-30T08:47:46.403Z,979.31
2018-04-30T08:48:46.411Z,979.39
2018-04-30T08:49:46.414Z,979.19
2018-04-30T08:50:46.419Z,979.25
2018-04-30T08:51:46.426Z,979.26
2018-04-30T08:52:46.431Z,979.18
2018-04-30T08:53:46.437Z,979.26
2018-04-30T08:54:46.439Z,979.19
2018-04-30T08:55:46.443Z,979.18
2018-04-30T08:56:46.449Z,979.15
2018-04-30T08:57:46.454Z,979.18
2018-04-30T08:58:46.458Z,979.19
2018-04-30T08:59:47.315Z,979.08
2018-04-30T09:00:46.474Z,979.27
2018-04-30T09:01:46.470Z,979.24
2018-04-30T09:02:46.471Z,979.26
2018-04-30T09:03:46.476Z,979.2
2018-04-30T09:04:46.486Z,979.19
2018-04-30T09:05:46.483Z,979.18
2018-04-30T09:06:46.486Z,979.19
2018-04-30T09:07:46.489Z,979.25
2018-04-30T09:08:46.492Z,979.23
2018-04-30T09:09:46.569Z,979.19
2018-04-30T09:10:46.501Z,979.14
2018-04-30T09:11:46.501Z,979.15
2018-04-30T09:12:46.513Z,979.15
2018-04-30T09:13:46.508Z,978.97
2018-04-30T09:14:46.519Z,979.18
2018-04-30T09:15:46.514Z,979.17
2018-04-30T09:16:46.515Z,979.21
2018-04-30T09:17:46.523Z,979.18
2018-04-30T09:18:46.519Z,979.2
2018-04-30T09:19:46.523Z,979.17
2018-04-30T09:20:46.529Z,979.24
2018-04-30T09:21:46.535Z,979.26
2018-04-30T09:22:46.529Z,979.28
2018-04-30T09:23:46.549Z,979.29
2018-04-30T09:24:46.539Z,979.3
2018-04-30T09:25:46.542Z,979.22
2018-04-30T09:26:46.542Z,979.23
2018-04-30T09:27:46.546Z,979.24
2018-04-30T09:28:46.550Z,979.25
2018-04-30T09:29:46.550Z,979.25
2018-04-30T09:30:46.553Z,979.27
2018-04-30T09:31:46.561Z,979.26
2018-04-30T09:32:46.562Z,979.26
2018-04-30T09:33:46.569Z,979.29
2018-04-30T09:34:46.564Z,979.31
2018-04-30T09:35:46.567Z,979.37
2018-04-30T09:36:46.570Z,979.33
2018-04-30T09:37:46.573Z,979.31
2018-04-30T09:38:46.574Z,979.31
2018-04-30T09:39:46.577Z,979.21
2018-04-30T09:40:46.582Z,979.24
2018-04-30T09:41:46.588Z,979.21
2018-04-30T09:42:46.584Z,979.24
2018-04-30T09:43:46.590Z,979.28
2018-04-30T09:44:46.591Z,979.37
2018-04-30T09:45:46.593Z,979.42
2018-04-30T09:46:46.596Z,979.3
2018-04-30T09:47:46.598Z,979.31
2018-04-30T09:48:46.605Z,979.26
2018-04-30T09:49:46.608Z,979.28
2018-04-30T09:50:46.607Z,979.26
2018-04-30T09:51:46.611Z,979.22
2018-04-30T09:52:46.613Z,979.23
2018-04-30T09:53:46.619Z,979.26
2018-04-30T09:54:46.623Z,979.32
2018-04-30T09:55:46.621Z,979.27
2018-04-30T09:56:46.624Z,979.28
2018-04-30T09:57:46.738Z,979.26
2018-04-30T09:58:46.628Z,979.29
2018-04-30T09:59:46.633Z,979.24
2018-04-30T10:00:46.633Z,979.22
2018-04-30T10:01:46.639Z,979.18
2018-04-30T10:02:46.638Z,979.26
2018-04-30T10:03:46.643Z,979.34
2018-04-30T10:04:46.653Z,979.39
2018-04-30T10:05:46.647Z,979.26
2018-04-30T10:06:46.655Z,979.34
2018-04-30T10:07:46.653Z,979.32
2018-04-30T10:08:46.656Z,979.28
2018-04-30T10:09:46.660Z,979.38
2018-04-30T10:10:46.659Z,979.34
2018-04-30T10:11:46.663Z,979.37
2018-04-30T10:12:46.665Z,979.27
2018-04-30T10:13:46.666Z,979.31
2018-04-30T10:14:46.669Z,979.28
2018-04-30T10:15:46.679Z,979.24
2018-04-30T10:16:46.676Z,979.23
2018-04-30T10:17:46.761Z,979.2
2018-04-30T10:18:46.682Z,979.08
2018-04-30T10:19:46.683Z,979.13
2018-04-30T10:20:46.685Z,979.17
2018-04-30T10:21:46.689Z,979.27
2018-04-30T10:52:40.927Z,979.18
2018-04-30T10:53:40.878Z,979.16
2018-04-30T10:54:40.873Z,979.05
2018-04-30T10:55:40.872Z,978.82
2018-04-30T10:56:40.872Z,979.13
2018-04-30T10:57:40.872Z,979.11
2018-04-30T10:58:40.871Z,979.07
2018-04-30T10:59:40.871Z,979.14
2018-04-30T11:00:40.872Z,979.21
2018-04-30T11:01:40.875Z,979.09
2018-04-30T11:02:40.969Z,979.01
2018-04-30T11:03:40.878Z,978.86
2018-04-30T11:04:40.880Z,978.99
2018-04-30T11:05:40.934Z,979.02
2018-04-30T11:06:40.886Z,979
2018-04-30T11:07:40.937Z,979.07
2018-04-30T11:08:40.889Z,979.14
2018-04-30T11:09:40.892Z,979
2018-04-30T11:10:40.898Z,978.99
2018-04-30T11:11:40.898Z,978.94
2018-04-30T11:12:40.899Z,978.96
2018-04-30T11:13:40.902Z,978.95
2018-04-30T11:14:40.906Z,978.91
2018-04-30T11:15:40.907Z,978.92
2018-04-30T11:16:40.911Z,978.9
2018-04-30T11:17:40.921Z,978.92
2018-04-30T11:18:40.922Z,978.78
2018-04-30T11:19:40.923Z,978.67
2018-04-30T11:20:40.933Z,978.87
2018-04-30T11:21:40.930Z,978.84
2018-04-30T11:22:42.231Z,978.87
2018-04-30T11:23:40.933Z,978.84
2018-04-30T11:24:40.935Z,978.93
2018-04-30T11:25:41.003Z,978.99
2018-04-30T11:26:40.946Z,979.01
2018-04-30T11:27:40.989Z,978.99
2018-04-30T11:28:40.948Z,979.03
2018-04-30T11:29:40.961Z,978.91
2018-04-30T11:30:40.954Z,978.82
2018-04-30T11:31:40.961Z,978.92
2018-04-30T11:32:40.960Z,978.85
2018-04-30T11:33:40.964Z,978.95
2018-04-30T11:34:40.968Z,979.11
2018-04-30T11:35:40.968Z,979
2018-04-30T11:36:40.971Z,979.01
2018-04-30T11:37:40.973Z,978.97
2018-04-30T11:38:40.976Z,979.04
2018-04-30T11:39:40.980Z,978.96
2018-04-30T11:40:40.982Z,978.99
2018-04-30T11:41:40.987Z,978.99
2018-04-30T11:42:40.989Z,978.87
2018-04-30T11:43:40.991Z,979.04
2018-04-30T11:44:40.995Z,979.07
2018-04-30T11:45:41.068Z,978.95
2018-04-30T11:46:41.009Z,979.13
2018-04-30T11:47:41.009Z,978.96
2018-04-30T11:48:41.011Z,978.95
2018-04-30T11:49:41.011Z,978.97
2018-04-30T11:50:41.015Z,978.92
2018-04-30T11:51:41.018Z,979.01
2018-04-30T11:52:41.024Z,979.06
2018-04-30T11:53:41.027Z,979.03
2018-04-30T11:54:41.046Z,979.08
2018-04-30T11:55:41.109Z,979.02
2018-04-30T11:56:41.037Z,978.94
2018-04-30T11:57:41.036Z,978.88
2018-04-30T11:58:41.137Z,978.9
2018-04-30T11:59:41.045Z,978.95
2018-04-30T12:00:41.050Z,979.09
2018-04-30T12:01:41.051Z,979.06
2018-04-30T12:02:41.060Z,978.97
2018-04-30T12:03:41.059Z,979.04
2018-04-30T12:04:41.062Z,979.14
2018-04-30T12:05:41.063Z,978.94
2018-04-30T12:06:41.083Z,978.97
2018-04-30T12:07:41.073Z,978.98
2018-04-30T12:08:41.072Z,979.05
2018-04-30T12:09:41.078Z,978.97
2018-04-30T12:10:41.158Z,978.99
2018-04-30T12:11:41.084Z,978.94
2018-04-30T12:12:41.089Z,979.03
2018-04-30T12:13:41.091Z,979.01
2018-04-30T12:14:41.094Z,979.11
2018-04-30T12:15:41.097Z,979.08
2018-04-30T12:16:41.145Z,979.03
2018-04-30T12:17:41.104Z,979.11
2018-04-30T12:18:41.108Z,979.04
2018-04-30T12:19:41.110Z,979.12
2018-04-30T12:20:41.118Z,979.08
2018-04-30T12:21:41.116Z,979.17
2018-04-30T12:22:41.130Z,979.15
2018-04-30T12:23:41.131Z,979.18
2018-04-30T12:24:41.129Z,979.16
2018-04-30T12:25:41.196Z,979.07
2018-04-30T12:26:41.133Z,979.2
2018-04-30T12:27:41.145Z,979.13
2018-04-30T12:28:41.140Z,979.16
2018-04-30T12:29:41.158Z,979.13
2018-04-30T12:30:41.146Z,979.06
2018-04-30T12:31:41.149Z,979.16
2018-04-30T12:32:41.154Z,979.06
2018-04-30T12:33:41.157Z,979.02
2018-04-30T12:34:41.159Z,978.91
2018-04-30T12:35:41.163Z,978.92
2018-04-30T12:36:41.166Z,979.1
2018-04-30T12:37:41.168Z,979.07
2018-04-30T12:38:41.171Z,979.01
2018-04-30T12:39:41.180Z,979.11
2018-04-30T12:40:41.179Z,979.15
2018-04-30T12:41:41.181Z,979.15
2018-04-30T12:42:41.186Z,979.07
2018-04-30T12:43:41.277Z,979.12
2018-04-30T12:44:41.205Z,979.19
2018-04-30T12:45:41.239Z,979.22
2018-04-30T12:46:41.197Z,979.26
2018-04-30T12:47:41.202Z,979.18
2018-04-30T12:48:41.203Z,979.24
2018-04-30T12:49:41.234Z,979.21
2018-04-30T12:50:41.217Z,979.16
2018-04-30T12:51:41.227Z,979.16
2018-04-30T12:52:41.234Z,979.15
2018-04-30T12:53:43.074Z,979.15
2018-04-30T12:54:41.223Z,979.13
2018-04-30T12:55:41.226Z,979.3
2018-04-30T12:56:41.228Z,979.2
2018-04-30T12:57:41.231Z,979.2
2018-04-30T12:58:41.237Z,979.23
2018-04-30T12:59:41.240Z,979.17
2018-04-30T13:00:41.241Z,979.14
2018-04-30T13:01:41.244Z,979.16
2018-04-30T13:02:41.253Z,979.16
2018-04-30T13:03:41.247Z,979.17
2018-04-30T13:04:41.252Z,979.21
2018-04-30T13:05:41.263Z,979.14
2018-04-30T13:06:41.258Z,979.26
2018-04-30T13:07:41.259Z,979.32
2018-04-30T13:08:41.265Z,979.26
2018-04-30T13:09:41.266Z,979.16
2018-04-30T13:10:41.267Z,979.24
2018-04-30T13:11:41.271Z,979.32
2018-04-30T13:12:41.274Z,979.15
2018-04-30T13:13:41.279Z,979.09
2018-04-30T13:14:41.280Z,979.26
2018-04-30T13:15:41.284Z,979.31
2018-04-30T13:16:41.286Z,979.24
2018-04-30T13:17:41.288Z,979.22
2018-04-30T13:18:41.289Z,979.23
2018-04-30T13:19:41.293Z,979.22
2018-04-30T13:20:41.298Z,979.2
2018-04-30T13:21:41.298Z,979.22
2018-04-30T13:22:41.302Z,979.22
2018-04-30T13:23:41.305Z,979.13
2018-04-30T13:24:41.309Z,979.17
2018-04-30T13:25:41.310Z,979.11
2018-04-30T13:26:41.313Z,979.33
2018-04-30T13:27:41.318Z,979.26
2018-04-30T13:28:41.367Z,979.21
2018-04-30T13:29:41.320Z,979.26
2018-04-30T13:30:41.327Z,979.15
2018-04-30T13:31:41.329Z,979.21
2018-04-30T13:32:41.333Z,979.33
2018-04-30T13:33:41.333Z,979.41
2018-04-30T13:34:41.336Z,979.43
2018-04-30T13:35:41.341Z,979.38
2018-04-30T13:36:41.342Z,979.4
2018-04-30T13:37:41.345Z,979.31
2018-04-30T13:38:41.348Z,979.48
2018-04-30T13:39:41.355Z,979.48